Matlacha Isles, Florida
Current Conditions -  °F | °C
As of 11:53 AM on Sunday 21 Dec 2014 (Local Time) from KFMY Reporting Station
Broken Clouds Broken Clouds  
Wind Chill: 76°   Ceiling: 11000
Heat Index: 76°   Visibility: 10mi
Dew Point: 65°   Wind: 8mph
Humidity: 69%   Direction: 160°SSE
Pressure: 30.07"   Gusts: NA
Location:  26.63°N, 82.015°W
Report Text: KFMY 211653Z 16007KT 10SM SCT090 BKN110 24/18 A3007 RMK AO2 SLP184 T02440183
Loading
Personal Weather Stations






























Interactive Weather Map New forecast layout! Learn more

10-Day Weather Forecast

Advertisements
Track Severe Weather on mobile